createdAt,value
2018-12-04T00:00:09.039Z,93.06
2018-12-04T00:02:37.629Z,92.50
2018-12-04T00:05:06.167Z,92.04
2018-12-04T00:07:34.672Z,92.19
2018-12-04T00:10:03.834Z,92.93
2018-12-04T00:12:32.299Z,93.11
2018-12-04T00:15:00.779Z,92.72
2018-12-04T00:17:29.246Z,92.86
2018-12-04T00:19:58.096Z,94.05
2018-12-04T00:22:26.577Z,93.32
2018-12-04T00:24:55.027Z,93.14
2018-12-04T00:27:23.737Z,92.97
2018-12-04T00:29:52.237Z,92.92
2018-12-04T00:32:20.703Z,92.26
2018-12-04T00:34:49.120Z,92.65
2018-12-04T00:37:17.639Z,92.59
2018-12-04T00:39:46.148Z,92.96
2018-12-04T00:42:14.600Z,92.48
2018-12-04T00:44:43.074Z,92.10
2018-12-04T00:47:11.522Z,92.14
2018-12-04T00:49:39.983Z,92.67
2018-12-04T00:52:08.488Z,92.58
2018-12-04T00:54:36.946Z,92.39
2018-12-04T00:57:05.413Z,92.70
2018-12-04T00:59:33.907Z,92.75
2018-12-04T01:02:02.460Z,92.23
2018-12-04T01:04:30.981Z,92.55
2018-12-04T01:06:59.472Z,92.46
2018-12-04T01:09:27.969Z,92.45
2018-12-04T01:11:56.417Z,92.34
2018-12-04T01:14:24.913Z,92.08
2018-12-04T01:16:53.364Z,92.22
2018-12-04T01:19:23.526Z,91.84
2018-12-04T01:21:51.967Z,92.10
2018-12-04T01:24:20.473Z,92.45
2018-12-04T01:26:49.542Z,92.78
2018-12-04T01:29:18.009Z,92.94
2018-12-04T01:31:46.687Z,93.15
2018-12-04T01:34:15.141Z,93.17
2018-12-04T01:36:43.602Z,93.00
2018-12-04T01:39:12.050Z,92.58
2018-12-04T01:41:42.615Z,92.15
2018-12-04T01:44:11.103Z,91.61
2018-12-04T01:46:39.575Z,91.17
2018-12-04T01:49:07.996Z,90.69
2018-12-04T01:51:36.531Z,91.03
2018-12-04T01:54:04.943Z,91.55
2018-12-04T01:56:33.383Z,91.78
2018-12-04T01:59:01.867Z,92.00
2018-12-04T02:01:30.325Z,92.20
2018-12-04T02:04:00.779Z,92.18
2018-12-04T02:06:29.243Z,92.12
2018-12-04T02:08:57.668Z,92.01
2018-12-04T02:11:26.072Z,91.68
2018-12-04T02:13:54.540Z,90.48
2018-12-04T02:16:22.983Z,90.26
2018-12-04T02:18:51.452Z,90.11
2018-12-04T02:21:19.928Z,90.35
2018-12-04T02:23:48.625Z,90.35
2018-12-04T02:26:17.357Z,91.02
2018-12-04T02:28:48.783Z,91.65
2018-12-04T02:31:17.268Z,91.54
2018-12-04T02:33:45.688Z,91.84
2018-12-04T02:36:14.153Z,91.54
2018-12-04T02:38:42.579Z,91.41
2018-12-04T02:41:11.067Z,91.56
2018-12-04T02:43:39.890Z,91.02
2018-12-04T02:46:08.311Z,91.14
2018-12-04T02:48:36.726Z,91.22
2018-12-04T02:51:05.227Z,91.68
2018-12-04T02:53:35.342Z,91.47
2018-12-04T02:56:03.761Z,91.73
2018-12-04T02:58:32.224Z,91.80
2018-12-04T03:01:00.654Z,91.61
2018-12-04T03:03:29.190Z,91.68
2018-12-04T03:05:57.681Z,92.45
2018-12-04T03:08:26.120Z,92.66
2018-12-04T03:10:55.032Z,92.49
2018-12-04T03:13:23.577Z,92.48
2018-12-04T03:15:52.084Z,92.62
2018-12-04T03:18:20.524Z,92.62
2018-12-04T03:20:49.084Z,92.72
2018-12-04T03:23:17.812Z,92.37
2018-12-04T03:25:46.271Z,92.95
2018-12-04T03:28:15.083Z,93.14
2018-12-04T03:30:43.549Z,93.12
2018-12-04T03:33:16.322Z,93.08
2018-12-04T03:35:44.772Z,92.84
2018-12-04T03:38:13.486Z,92.71
2018-12-04T03:40:41.985Z,92.86
2018-12-04T03:43:10.808Z,92.78
2018-12-04T03:45:39.698Z,92.84
2018-12-04T03:48:08.163Z,92.73
2018-12-04T03:50:38.603Z,92.77
2018-12-04T03:53:07.129Z,92.75
2018-12-04T03:55:35.646Z,92.67
2018-12-04T03:58:04.224Z,92.51
2018-12-04T04:00:32.814Z,91.83
2018-12-04T04:03:01.319Z,92.10
2018-12-04T04:05:29.744Z,92.20
2018-12-04T04:07:58.206Z,92.37
2018-12-04T04:10:26.711Z,92.98
2018-12-04T04:12:55.143Z,93.02
2018-12-04T04:15:23.612Z,92.79
2018-12-04T04:17:52.111Z,92.48
2018-12-04T04:20:20.590Z,91.84
2018-12-04T04:22:49.176Z,92.38
2018-12-04T04:25:17.657Z,92.06
2018-12-04T04:27:46.130Z,92.51
2018-12-04T04:30:14.850Z,92.55
2018-12-04T04:32:43.336Z,93.06
2018-12-04T04:35:12.024Z,93.29
2018-12-04T04:37:40.732Z,92.89
2018-12-04T04:40:09.569Z,92.06
2018-12-04T04:42:38.257Z,92.85
2018-12-04T04:45:06.863Z,92.10
2018-12-04T04:47:35.353Z,92.47
2018-12-04T04:50:04.147Z,92.49
2018-12-04T04:52:32.606Z,92.46
2018-12-04T04:55:01.108Z,92.71
2018-12-04T04:57:29.549Z,92.48
2018-12-04T04:59:58.106Z,92.31
2018-12-04T05:02:26.600Z,91.80
2018-12-04T05:04:55.097Z,91.38
2018-12-04T05:07:23.572Z,92.04
2018-12-04T05:09:52.078Z,91.69
2018-12-04T05:12:20.510Z,91.91
2018-12-04T05:14:48.939Z,92.73
2018-12-04T05:17:17.583Z,93.21
2018-12-04T05:19:46.059Z,93.02
2018-12-04T05:22:14.885Z,93.21
2018-12-04T05:24:43.388Z,92.96
2018-12-04T05:27:13.443Z,93.03
2018-12-04T05:29:42.168Z,93.09
2018-12-04T05:32:10.657Z,93.33
2018-12-04T05:34:39.151Z,93.38
2018-12-04T05:37:08.003Z,93.38
2018-12-04T05:39:36.500Z,93.13
2018-12-04T05:42:04.987Z,92.54
2018-12-04T05:44:33.471Z,91.94
2018-12-04T05:47:01.978Z,92.47
2018-12-04T05:49:30.452Z,94.16
2018-12-04T05:52:00.556Z,94.02
2018-12-04T05:54:29.048Z,93.39
2018-12-04T05:56:57.489Z,93.13
2018-12-04T05:59:25.959Z,91.76
2018-12-04T06:01:54.456Z,92.08
2018-12-04T06:04:22.950Z,92.47
2018-12-04T06:06:51.406Z,92.38
2018-12-04T06:09:19.924Z,92.11
2018-12-04T06:11:48.412Z,91.85
2018-12-04T06:14:16.912Z,91.98
2018-12-04T06:16:45.448Z,92.34
2018-12-04T06:19:13.935Z,92.71
2018-12-04T06:21:42.440Z,92.93
2018-12-04T06:24:10.928Z,92.66
2018-12-04T06:26:39.407Z,93.36
2018-12-04T06:29:07.881Z,92.84
2018-12-04T06:31:36.422Z,93.56
2018-12-04T06:34:05.024Z,93.61
2018-12-04T06:36:33.502Z,95.44
2018-12-04T06:39:01.985Z,93.60
2018-12-04T06:41:30.440Z,93.60
2018-12-04T06:43:58.935Z,92.84
2018-12-04T06:46:27.424Z,90.37
2018-12-04T06:48:55.855Z,89.63
2018-12-04T06:51:24.317Z,86.92
2018-12-04T06:53:52.833Z,86.33
2018-12-04T06:56:21.274Z,85.39
2018-12-04T06:58:49.999Z,85.10
2018-12-04T07:01:18.602Z,81.88
2018-12-04T07:03:47.022Z,83.65
2018-12-04T07:06:16.504Z,84.20
2018-12-04T07:08:44.964Z,84.44
2018-12-04T07:11:13.632Z,83.29
2018-12-04T07:13:42.096Z,83.83
2018-12-04T07:16:10.561Z,84.88
2018-12-04T07:18:39.071Z,85.29
2018-12-04T07:21:07.557Z,87.80
2018-12-04T07:23:36.088Z,88.48
2018-12-04T07:26:04.849Z,88.70
2018-12-04T07:28:33.571Z,88.89
2018-12-04T07:31:02.046Z,88.81
2018-12-04T07:33:30.787Z,88.94
2018-12-04T07:35:59.463Z,89.15
2018-12-04T07:38:28.003Z,87.58
2018-12-04T07:40:56.842Z,87.80
2018-12-04T07:43:25.305Z,87.81
2018-12-04T07:45:53.820Z,86.64
2018-12-04T07:48:24.214Z,86.73
2018-12-04T07:50:52.696Z,86.25
2018-12-04T07:53:21.240Z,85.53
2018-12-04T07:55:49.736Z,85.41
2018-12-04T07:58:18.176Z,85.02
2018-12-04T08:00:46.684Z,83.72
2018-12-04T08:03:15.154Z,84.25
2018-12-04T08:05:43.642Z,82.96
2018-12-04T08:08:12.140Z,82.48
2018-12-04T08:10:42.579Z,83.24
2018-12-04T08:13:11.280Z,83.05
2018-12-04T08:15:39.849Z,83.23
2018-12-04T08:18:08.929Z,82.73
2018-12-04T08:20:39.679Z,80.03
2018-12-04T08:23:08.387Z,79.40
2018-12-04T08:25:36.835Z,79.50
2018-12-04T08:28:05.269Z,79.86
2018-12-04T08:30:33.784Z,80.35
2018-12-04T08:33:02.244Z,80.30
2018-12-04T08:35:30.710Z,77.60
2018-12-04T08:37:59.322Z,77.11
2018-12-04T08:40:27.796Z,76.22
2018-12-04T08:42:59.677Z,75.25
2018-12-04T08:45:28.193Z,75.39
2018-12-04T08:47:56.675Z,75.53
2018-12-04T08:50:25.156Z,76.09
2018-12-04T08:52:53.647Z,74.84
2018-12-04T08:55:22.770Z,74.91
2018-12-04T08:57:51.477Z,75.35
2018-12-04T09:00:20.343Z,75.28
2018-12-04T09:02:50.572Z,74.21
2018-12-04T09:05:19.197Z,73.90
2018-12-04T09:07:47.802Z,74.40
2018-12-04T09:10:16.276Z,74.87
2018-12-04T09:12:44.780Z,74.65
2018-12-04T09:15:13.265Z,74.82
2018-12-04T09:17:41.724Z,74.96
2018-12-04T09:20:10.237Z,73.55
2018-12-04T09:22:38.834Z,72.75
2018-12-04T09:25:07.415Z,72.99
2018-12-04T09:27:35.949Z,73.56
2018-12-04T09:30:07.776Z,73.65
2018-12-04T09:32:36.537Z,71.64
2018-12-04T09:35:07.150Z,71.60
2018-12-04T09:37:35.664Z,71.34
2018-12-04T09:40:05.660Z,71.34
2018-12-04T09:42:34.146Z,70.56
2018-12-04T09:45:02.648Z,70.93
2018-12-04T09:47:33.045Z,71.30
2018-12-04T09:50:01.479Z,71.96
2018-12-04T09:52:29.976Z,72.04
2018-12-04T09:54:58.428Z,71.49
2018-12-04T09:57:26.900Z,71.71
2018-12-04T09:59:55.397Z,71.08
2018-12-04T10:02:23.837Z,71.05
2018-12-04T10:04:52.339Z,70.57
2018-12-04T10:07:20.844Z,70.82
2018-12-04T10:09:49.363Z,70.13
2018-12-04T10:12:17.849Z,70.21
2018-12-04T10:14:46.340Z,70.29
2018-12-04T10:17:15.031Z,70.30
2018-12-04T10:19:43.920Z,69.49
2018-12-04T10:22:16.325Z,69.27
2018-12-04T10:24:45.754Z,68.47
2018-12-04T10:27:14.197Z,69.03
2018-12-04T10:29:43.399Z,69.13
2018-12-04T10:32:12.300Z,68.76
2018-12-04T10:34:40.764Z,68.85
2018-12-04T10:37:09.241Z,69.56
2018-12-04T10:39:37.721Z,68.95
2018-12-04T10:42:06.197Z,68.07
2018-12-04T10:44:34.728Z,69.12
2018-12-04T10:47:03.216Z,67.91
2018-12-04T10:49:31.634Z,67.62
2018-12-04T10:52:00.091Z,68.71
2018-12-04T10:54:28.594Z,69.94
2018-12-04T10:56:57.081Z,69.07
2018-12-04T10:59:25.608Z,69.40
2018-12-04T11:01:59.696Z,69.44
2018-12-04T11:04:28.202Z,68.60
2018-12-04T11:06:56.892Z,68.61
2018-12-04T11:09:25.381Z,68.24
2018-12-04T11:11:54.068Z,68.09
2018-12-04T11:14:22.519Z,67.93
2018-12-04T11:16:52.020Z,68.08
2018-12-04T11:19:21.256Z,67.81
2018-12-04T11:21:49.765Z,67.98
2018-12-04T11:24:18.915Z,67.73
2018-12-04T11:26:47.392Z,67.61
2018-12-04T11:29:15.790Z,67.15
2018-12-04T11:31:44.437Z,67.82
2018-12-04T11:34:13.000Z,68.22
2018-12-04T11:36:41.921Z,68.29
2018-12-04T11:39:10.424Z,68.74
2018-12-04T11:41:39.513Z,69.07
2018-12-04T11:44:08.200Z,68.88
2018-12-04T11:46:36.668Z,68.45
2018-12-04T11:49:05.192Z,68.78
2018-12-04T11:51:34.103Z,68.64
2018-12-04T11:54:02.520Z,68.59
2018-12-04T11:56:31.024Z,68.67
2018-12-04T11:58:59.483Z,68.39
2018-12-04T12:01:29.649Z,68.37
2018-12-04T12:03:58.509Z,68.34
2018-12-04T12:06:27.645Z,68.68
2018-12-04T12:08:58.840Z,68.19
2018-12-04T12:11:27.376Z,68.73
2018-12-04T12:13:57.772Z,68.39
2018-12-04T12:16:26.232Z,68.36
2018-12-04T12:18:54.765Z,68.50
2018-12-04T12:21:23.830Z,68.50
2018-12-04T12:23:52.302Z,68.44
2018-12-04T12:26:20.826Z,68.41
2018-12-04T12:28:49.269Z,68.40
2018-12-04T12:31:17.742Z,68.25
2018-12-04T12:33:46.295Z,66.24
2018-12-04T12:36:14.745Z,66.75
2018-12-04T12:38:43.334Z,67.09
2018-12-04T12:41:11.868Z,67.58
2018-12-04T12:43:40.331Z,67.39
2018-12-04T12:46:08.764Z,67.01
2018-12-04T12:48:37.276Z,66.24
2018-12-04T12:51:05.737Z,66.22
2018-12-04T12:53:34.206Z,66.75
2018-12-04T12:56:02.678Z,67.01
2018-12-04T12:58:31.168Z,67.51
2018-12-04T13:00:59.778Z,66.77
2018-12-04T13:03:28.250Z,67.02
2018-12-04T13:05:56.712Z,67.67
2018-12-04T13:08:25.178Z,68.37
2018-12-04T13:10:53.656Z,68.79
2018-12-04T13:13:22.110Z,68.76
2018-12-04T13:15:50.567Z,69.88
2018-12-04T13:18:19.068Z,70.54
2018-12-04T13:20:47.552Z,70.87
2018-12-04T13:23:16.149Z,70.88
2018-12-04T13:25:44.631Z,69.92
2018-12-04T13:28:13.135Z,70.39
2018-12-04T13:30:41.589Z,70.17
2018-12-04T13:33:10.107Z,70.52
2018-12-04T13:35:38.559Z,70.39
2018-12-04T13:38:07.028Z,69.36
2018-12-04T13:40:35.540Z,61.14
2018-12-04T13:43:04.004Z,60.34
2018-12-04T13:45:32.489Z,60.95
2018-12-04T13:48:01.105Z,59.96
2018-12-04T13:50:30.423Z,55.50
2018-12-04T13:52:58.866Z,54.90
2018-12-04T13:55:27.426Z,55.10
2018-12-04T13:57:57.629Z,51.89
2018-12-04T14:00:26.150Z,52.37
2018-12-04T14:02:55.381Z,51.32
2018-12-04T14:05:24.072Z,52.27
2018-12-04T14:07:52.543Z,49.68
2018-12-04T14:10:21.184Z,50.18
2018-12-04T14:12:49.629Z,51.00
2018-12-04T14:15:18.132Z,50.36
2018-12-04T14:17:47.466Z,50.60
2018-12-04T14:20:16.239Z,49.77
2018-12-04T14:22:46.916Z,50.43
2018-12-04T14:25:16.504Z,49.51
2018-12-04T14:27:49.050Z,48.84
2018-12-04T14:30:15.616Z,50.36
2018-12-04T14:32:44.112Z,49.30
2018-12-04T14:35:12.608Z,50.15
2018-12-04T14:37:41.199Z,49.87
2018-12-04T14:40:09.728Z,49.88
2018-12-04T14:42:38.354Z,49.51
2018-12-04T14:45:07.219Z,49.17
2018-12-04T14:47:35.819Z,48.68
2018-12-04T14:50:05.864Z,48.42
2018-12-04T14:52:34.466Z,48.87
2018-12-04T14:55:04.825Z,49.88
2018-12-04T14:57:33.619Z,49.78
2018-12-04T15:00:02.529Z,50.17
2018-12-04T15:02:31.051Z,50.51
2018-12-04T15:04:59.552Z,51.62
2018-12-04T15:07:28.113Z,51.57
2018-12-04T15:09:56.613Z,51.55
2018-12-04T15:12:25.418Z,51.31
2018-12-04T15:14:57.368Z,52.08
2018-12-04T15:17:26.232Z,50.36
2018-12-04T15:19:55.152Z,49.99
2018-12-04T15:22:24.024Z,50.11
2018-12-04T15:24:52.464Z,49.78
2018-12-04T15:27:21.028Z,49.85
2018-12-04T15:29:49.628Z,49.70
2018-12-04T15:32:18.143Z,49.76
2018-12-04T15:34:46.710Z,50.25
2018-12-04T15:37:15.212Z,50.05
2018-12-04T15:39:45.604Z,50.70
2018-12-04T15:42:14.039Z,50.94
2018-12-04T15:44:42.685Z,50.09
2018-12-04T15:47:12.774Z,50.10
2018-12-04T15:49:41.443Z,50.83
2018-12-04T15:52:10.077Z,51.24
2018-12-04T15:54:38.626Z,51.02
2018-12-04T15:57:07.362Z,51.48
2018-12-04T15:59:35.865Z,52.23
2018-12-04T16:02:04.467Z,53.27
2018-12-04T16:04:32.983Z,53.42
2018-12-04T16:07:01.449Z,53.40
2018-12-04T16:09:29.892Z,54.13
2018-12-04T16:11:58.374Z,55.55
2018-12-04T16:14:30.146Z,55.98
2018-12-04T16:16:58.609Z,57.35
2018-12-04T16:19:27.540Z,57.79
2018-12-04T16:21:56.011Z,59.12
2018-12-04T16:24:24.492Z,59.46
2018-12-04T16:26:53.024Z,60.36
2018-12-04T16:29:21.554Z,61.01
2018-12-04T16:31:50.064Z,62.39
2018-12-04T16:34:18.774Z,62.67
2018-12-04T16:36:47.494Z,63.04
2018-12-04T16:39:15.967Z,62.93
2018-12-04T16:41:44.784Z,62.03
2018-12-04T16:44:13.268Z,61.99
2018-12-04T16:46:41.853Z,61.19
2018-12-04T16:49:10.342Z,62.12
2018-12-04T16:51:38.847Z,61.50
2018-12-04T16:54:08.972Z,61.23
2018-12-04T16:56:37.998Z,60.94
2018-12-04T16:59:06.500Z,60.73
2018-12-04T17:01:34.966Z,60.50
2018-12-04T17:04:03.484Z,60.68
2018-12-04T17:06:31.968Z,61.96
2018-12-04T17:09:00.486Z,63.39
2018-12-04T17:11:29.129Z,63.85
2018-12-04T17:13:57.693Z,62.83
2018-12-04T17:16:26.191Z,61.66
2018-12-04T17:18:54.721Z,60.91
2018-12-04T17:21:23.245Z,60.27
2018-12-04T17:23:51.734Z,59.71
2018-12-04T17:26:20.252Z,59.39
2018-12-04T17:28:48.890Z,59.26
2018-12-04T17:31:17.465Z,59.69
2018-12-04T17:33:45.946Z,59.94
2018-12-04T17:36:14.475Z,59.71
2018-12-04T17:38:43.105Z,59.94
2018-12-04T17:41:11.576Z,60.47
2018-12-04T17:43:40.456Z,60.37
2018-12-04T17:46:08.985Z,60.69
2018-12-04T17:48:38.588Z,60.76
2018-12-04T17:51:07.250Z,60.89
2018-12-04T17:53:36.176Z,60.77
2018-12-04T17:56:04.940Z,60.92
2018-12-04T17:58:33.491Z,61.04
2018-12-04T18:01:02.103Z,60.97
2018-12-04T18:03:30.675Z,61.03
2018-12-04T18:05:59.272Z,61.74
2018-12-04T18:08:27.786Z,62.29
2018-12-04T18:10:56.343Z,63.26
2018-12-04T18:13:24.962Z,65.91
2018-12-04T18:15:53.591Z,66.08
2018-12-04T18:18:22.187Z,66.07
2018-12-04T18:20:50.789Z,66.46
2018-12-04T18:23:19.582Z,67.03
2018-12-04T18:25:48.169Z,67.54
2018-12-04T18:28:17.429Z,67.85
2018-12-04T18:30:46.715Z,68.45
2018-12-04T18:33:15.952Z,68.60
2018-12-04T18:35:44.469Z,68.84
2018-12-04T18:38:13.040Z,69.32
2018-12-04T18:40:41.529Z,69.43
2018-12-04T18:43:10.129Z,69.67
2018-12-04T18:45:38.569Z,69.90
2018-12-04T18:48:07.022Z,70.19
2018-12-04T18:50:35.548Z,69.94
2018-12-04T18:53:04.109Z,70.40
2018-12-04T18:55:33.426Z,70.46
2018-12-04T18:58:01.988Z,69.88
2018-12-04T19:00:30.542Z,69.65
2018-12-04T19:02:59.303Z,69.89
2018-12-04T19:05:27.889Z,69.83
2018-12-04T19:07:56.397Z,70.30
2018-12-04T19:10:25.010Z,70.80
2018-12-04T19:12:53.951Z,71.06
2018-12-04T19:15:22.472Z,71.14
2018-12-04T19:17:51.020Z,71.23
2018-12-04T19:20:19.665Z,71.08
2018-12-04T19:22:48.176Z,71.45
2018-12-04T19:25:16.631Z,71.70
2018-12-04T19:27:45.145Z,72.07
2018-12-04T19:30:15.087Z,72.29
2018-12-04T19:32:43.525Z,72.47
2018-12-04T19:35:12.084Z,72.36
2018-12-04T19:37:40.687Z,72.84
2018-12-04T19:40:09.641Z,73.05
2018-12-04T19:42:40.342Z,73.82
2018-12-04T19:45:08.856Z,74.35
2018-12-04T19:47:37.330Z,74.61
2018-12-04T19:50:07.317Z,75.73
2018-12-04T19:52:36.195Z,74.69
2018-12-04T19:55:04.854Z,74.82
2018-12-04T19:57:33.537Z,75.30
2018-12-04T20:00:02.337Z,75.32
2018-12-04T20:02:30.820Z,75.11
2018-12-04T20:04:59.485Z,75.49
2018-12-04T20:07:28.570Z,75.15
2018-12-04T20:09:59.001Z,75.48
2018-12-04T20:12:27.685Z,75.89
2018-12-04T20:14:57.282Z,75.80
2018-12-04T20:17:25.847Z,76.00
2018-12-04T20:19:55.555Z,76.12
2018-12-04T20:22:24.486Z,76.19
2018-12-04T20:24:53.251Z,76.89
2018-12-04T20:27:21.842Z,77.16
2018-12-04T20:29:50.673Z,76.71
2018-12-04T20:32:19.216Z,76.41
2018-12-04T20:34:47.736Z,76.79
2018-12-04T20:37:16.710Z,76.47
2018-12-04T20:39:45.431Z,75.97
2018-12-04T20:42:14.239Z,75.45
2018-12-04T20:44:42.893Z,75.27
2018-12-04T20:47:11.693Z,75.16
2018-12-04T20:49:40.349Z,75.04
2018-12-04T20:52:09.576Z,74.43
2018-12-04T20:54:38.039Z,74.54
2018-12-04T20:57:06.562Z,74.44
2018-12-04T20:59:35.903Z,74.38
2018-12-04T21:02:04.756Z,73.73
2018-12-04T21:04:34.514Z,74.14
2018-12-04T21:07:03.675Z,74.55
2018-12-04T21:09:32.250Z,74.90
2018-12-04T21:12:00.937Z,74.70
2018-12-04T21:14:29.736Z,74.97
2018-12-04T21:16:59.232Z,74.30
2018-12-04T21:19:27.807Z,74.84
2018-12-04T21:21:56.637Z,75.49
2018-12-04T21:24:33.463Z,75.93
2018-12-04T21:27:13.149Z,75.62
2018-12-04T21:29:47.643Z,75.82
2018-12-04T21:32:21.896Z,76.17
2018-12-04T21:34:56.090Z,76.66
2018-12-04T21:37:30.578Z,76.84
2018-12-04T21:40:05.214Z,76.86
2018-12-04T21:42:39.280Z,76.97
2018-12-04T21:48:10.819Z,77.28
2018-12-04T21:50:39.301Z,76.80
2018-12-04T21:53:07.813Z,76.52
2018-12-04T21:55:36.456Z,76.72
2018-12-04T21:58:04.940Z,76.66
2018-12-04T22:00:33.408Z,76.10
2018-12-04T22:03:01.842Z,75.27
2018-12-04T22:05:30.266Z,74.89
2018-12-04T22:07:58.710Z,75.43
2018-12-04T22:10:27.184Z,75.13
2018-12-04T22:12:58.471Z,75.97
2018-12-04T22:15:26.877Z,76.25
2018-12-04T22:17:55.275Z,76.48
2018-12-04T22:20:23.730Z,76.80
2018-12-04T22:22:52.289Z,77.10
2018-12-04T22:25:21.139Z,76.96
2018-12-04T22:27:50.102Z,76.94
2018-12-04T22:30:18.656Z,76.66
2018-12-04T22:32:47.112Z,76.53
2018-12-04T22:35:15.566Z,76.29
2018-12-04T22:37:44.024Z,75.67
2018-12-04T22:40:12.641Z,75.69
2018-12-04T22:42:41.119Z,76.16
2018-12-04T22:45:15.211Z,76.76
2018-12-04T22:47:43.752Z,76.69
2018-12-04T22:50:12.386Z,76.74
2018-12-04T22:52:40.861Z,76.80
2018-12-04T22:55:09.344Z,77.31
2018-12-04T22:57:37.819Z,77.51
2018-12-04T23:00:11.215Z,77.43
2018-12-04T23:02:39.652Z,77.48
2018-12-04T23:05:08.121Z,77.35
2018-12-04T23:07:36.607Z,77.34
2018-12-04T23:10:08.610Z,77.46
2018-12-04T23:12:37.066Z,77.02
2018-12-04T23:15:06.047Z,77.37
2018-12-04T23:17:34.480Z,77.33
2018-12-04T23:20:02.982Z,77.37
2018-12-04T23:22:31.405Z,77.05
2018-12-04T23:25:00.307Z,77.07
2018-12-04T23:27:29.358Z,77.00
2018-12-04T23:29:57.808Z,77.42
2018-12-04T23:32:26.208Z,77.41
2018-12-04T23:34:54.661Z,77.29
2018-12-04T23:37:23.122Z,77.34
2018-12-04T23:39:51.544Z,77.49
2018-12-04T23:42:20.164Z,77.80
2018-12-04T23:44:50.328Z,78.05
2018-12-04T23:47:20.180Z,78.09
2018-12-04T23:49:50.368Z,78.33
2018-12-04T23:52:18.838Z,78.28
2018-12-04T23:54:47.337Z,78.04
2018-12-04T23:57:15.826Z,78.25
2018-12-04T23:59:44.240Z,78.53
